Terminal Aerodrome Forecast
Issued by NWS Jackson, MS

Home | Current Version | Previous Version | Text Only | Print | Product List | Glossary On
Versions: 1 2 3 4 5 6 7 8 9 10 11 12 13 14 15 16 17 18 19 20 21 22 23 24 25 26 27
000
FTUS44 KJAN 231100
TAFHBG
TAF
KHBG 231123Z 2312/2412 00000KT 1/4SM FG OVC002
     FM231300 00000KT 3SM BR SCT007
     FM231400 07003KT P6SM SCT015
     FM231600 09005KT P6SM SCT100
     FM231900 VRB05KT P6SM VCTS SCT050CB BKN250
      TEMPO 2321/2324 3SM TSRA BKN025CB
     FM240800 00000KT 5SM BR VCSH SCT025 SCT100=

USA.gov is the U.S. government's official web portal to all federal, state and local government web resources and services.